KDMA/DMA METAR and TAF weather

Enter ICAO airport designator
Station Type Date Time Source
KDMA METAR 2020/04/04 19:58 UTC NOAA

KDMA 041958Z AUTO 29003KT 10SM CLR 26/M06 A2984 RMK AO2 SLP072 T02551060 FZRANO $


Station Type Date Time Source
KDMA Decoded METAR 2020/04/04 19:58 UTC NOAA

Davis-Monthan Air Force Base, AZ, United States (KDMA) 32-10N 110-53W
Apr 04, 2020 - 03:58 PM EDT / 2020.04.04 1958 UTC
Wind: from the WNW (290 degrees) at 3 MPH (3 KT):0
Visibility: 10 mile(s):0
Sky conditions: clear
Temperature: 77.9 F (25.5 C)
Dew Point: 21.2 F (-6.0 C)
Relative Humidity: 11%
Pressure (altimeter): 29.84 in. Hg (1010 hPa)
ob: KDMA 041958Z AUTO 29003KT 10SM CLR 26/M06 A2984 RMK AO2 SLP072 T02551060 FZRANO
cycle: 20

Station Type Date Time Source
KDMA TAF 2020/04/04 14:26 UTC NOAA

TAF KDMA 041405Z 0414/0520 VRB06KT 9999 SKC QNH2987INS
BECMG 0419/0420 24012G18KT 9999 SKC QNH2979INS
BECMG 0502/0503 VRB06KT 9999 SKC QNH2982INS
BECMG 0512/0513 23015G20KT 9999 SKC QNH2988INS TX28/0421Z TN08/0513Z

Example: see airport list